createdAt,value
2022-10-17T00:01:30.674Z,12.42
2022-10-17T00:03:57.177Z,12.31
2022-10-17T00:06:23.454Z,12.28
2022-10-17T00:08:49.969Z,12.21
2022-10-17T00:11:16.287Z,12.00
2022-10-17T00:13:42.579Z,11.98
2022-10-17T00:16:08.919Z,12.07
2022-10-17T00:18:35.159Z,12.15
2022-10-17T00:21:01.667Z,12.16
2022-10-17T00:23:28.132Z,12.15
2022-10-17T00:25:54.401Z,12.13
2022-10-17T00:28:20.740Z,12.07
2022-10-17T00:30:47.513Z,12.15
2022-10-17T00:33:13.858Z,12.15
2022-10-17T00:35:41.231Z,12.06
2022-10-17T00:38:08.385Z,12.06
2022-10-17T00:40:34.671Z,12.08
2022-10-17T00:43:01.159Z,12.08
2022-10-17T00:45:27.880Z,12.09
2022-10-17T00:47:54.138Z,12.08
2022-10-17T00:50:20.412Z,12.06
2022-10-17T00:52:46.763Z,12.05
2022-10-17T00:55:13.207Z,12.06
2022-10-17T00:57:39.482Z,12.01
2022-10-17T01:00:05.756Z,11.96
2022-10-17T01:02:32.030Z,11.97
2022-10-17T01:04:58.315Z,11.97
2022-10-17T01:07:24.930Z,11.97
2022-10-17T01:09:51.363Z,11.86
2022-10-17T01:12:17.651Z,11.89
2022-10-17T01:14:44.205Z,11.92
2022-10-17T01:17:10.502Z,11.88
2022-10-17T01:19:36.870Z,11.89
2022-10-17T01:22:03.287Z,11.90
2022-10-17T01:24:29.581Z,11.82
2022-10-17T01:26:55.920Z,11.81
2022-10-17T01:29:22.264Z,11.66
2022-10-17T01:31:48.596Z,11.70
2022-10-17T01:34:14.843Z,11.70
2022-10-17T01:36:42.208Z,11.64
2022-10-17T01:39:08.597Z,11.64
2022-10-17T01:41:34.872Z,11.60
2022-10-17T01:44:01.573Z,11.58
2022-10-17T01:46:27.878Z,11.43
2022-10-17T01:48:54.181Z,11.33
2022-10-17T01:51:20.599Z,11.30
2022-10-17T01:53:47.123Z,11.42
2022-10-17T01:56:13.412Z,11.29
2022-10-17T01:58:39.871Z,11.32
2022-10-17T02:01:06.322Z,11.38
2022-10-17T02:03:32.704Z,11.44
2022-10-17T02:05:59.346Z,11.41
2022-10-17T02:08:25.616Z,11.40
2022-10-17T02:10:51.896Z,11.44
2022-10-17T02:13:18.549Z,11.28
2022-10-17T02:15:44.794Z,11.29
2022-10-17T02:18:11.156Z,11.34
2022-10-17T02:20:37.717Z,11.38
2022-10-17T02:23:04.151Z,11.36
2022-10-17T02:25:30.415Z,11.35
2022-10-17T02:27:56.764Z,11.32
2022-10-17T02:30:23.051Z,11.33
2022-10-17T02:32:50.362Z,11.33
2022-10-17T02:35:17.066Z,11.32
2022-10-17T02:37:43.590Z,11.29
2022-10-17T02:40:09.845Z,11.34
2022-10-17T02:42:36.289Z,11.33
2022-10-17T02:45:02.573Z,11.26
2022-10-17T02:47:28.969Z,11.23
2022-10-17T02:49:55.259Z,11.23
2022-10-17T02:52:21.577Z,11.19
2022-10-17T02:54:47.861Z,11.16
2022-10-17T02:57:14.550Z,11.18
2022-10-17T02:59:41.035Z,11.19
2022-10-17T03:02:07.311Z,11.05
2022-10-17T03:04:33.979Z,10.94
2022-10-17T03:07:00.309Z,10.98
2022-10-17T03:09:26.603Z,10.96
2022-10-17T03:11:53.761Z,10.79
2022-10-17T03:14:20.194Z,10.77
2022-10-17T03:16:46.463Z,10.86
2022-10-17T03:19:13.368Z,10.94
2022-10-17T03:21:39.605Z,10.91
2022-10-17T03:24:05.940Z,10.94
2022-10-17T03:26:32.800Z,10.96
2022-10-17T03:28:59.130Z,10.94
2022-10-17T03:31:25.459Z,10.89
2022-10-17T03:33:51.807Z,10.88
2022-10-17T03:36:18.170Z,10.88
2022-10-17T03:38:44.531Z,10.87
2022-10-17T03:41:10.861Z,10.76
2022-10-17T03:43:37.380Z,10.66
2022-10-17T03:46:03.650Z,10.71
2022-10-17T03:48:30.010Z,10.80
2022-10-17T03:50:56.299Z,10.82
2022-10-17T03:53:23.270Z,10.75
2022-10-17T03:55:49.776Z,10.78
2022-10-17T03:58:16.264Z,10.71
2022-10-17T04:00:42.556Z,10.63
2022-10-17T04:03:10.863Z,10.66
2022-10-17T04:05:40.228Z,10.65
2022-10-17T04:08:06.473Z,10.59
2022-10-17T04:10:32.888Z,10.65
2022-10-17T04:12:59.399Z,10.66
2022-10-17T04:15:25.745Z,10.69
2022-10-17T04:17:52.312Z,10.69
2022-10-17T04:20:18.618Z,10.66
2022-10-17T04:22:44.881Z,10.55
2022-10-17T04:25:11.635Z,10.57
2022-10-17T04:27:37.938Z,10.58
2022-10-17T04:30:04.382Z,10.56
2022-10-17T04:32:31.339Z,10.57
2022-10-17T04:34:58.128Z,10.56
2022-10-17T04:37:24.466Z,10.54
2022-10-17T04:39:50.775Z,10.54
2022-10-17T04:42:17.050Z,10.55
2022-10-17T04:44:43.380Z,10.58
2022-10-17T04:47:09.913Z,10.58
2022-10-17T04:49:36.254Z,10.54
2022-10-17T04:52:02.643Z,10.52
2022-10-17T04:54:29.125Z,10.54
2022-10-17T04:56:55.384Z,10.54
2022-10-17T04:59:21.646Z,10.60
2022-10-17T05:01:47.929Z,10.62
2022-10-17T05:04:14.288Z,10.63
2022-10-17T05:06:40.591Z,10.65
2022-10-17T05:09:07.003Z,10.64
2022-10-17T05:11:33.264Z,10.62
2022-10-17T05:13:59.581Z,10.69
2022-10-17T05:16:25.961Z,10.64
2022-10-17T05:18:53.049Z,10.57
2022-10-17T05:21:19.608Z,10.53
2022-10-17T05:23:46.184Z,10.43
2022-10-17T05:26:12.631Z,10.42
2022-10-17T05:28:39.944Z,10.41
2022-10-17T05:31:06.639Z,10.44
2022-10-17T05:33:34.950Z,10.45
2022-10-17T05:36:01.285Z,10.47
2022-10-17T05:38:27.742Z,10.47
2022-10-17T05:40:54.020Z,10.44
2022-10-17T05:43:20.318Z,10.46
2022-10-17T05:45:46.623Z,10.50
2022-10-17T05:48:12.911Z,10.77
2022-10-17T05:50:41.225Z,10.93
2022-10-17T05:53:08.091Z,11.09
2022-10-17T05:55:34.372Z,11.21
2022-10-17T05:58:00.660Z,11.36
2022-10-17T06:00:27.100Z,11.43
2022-10-17T06:02:55.508Z,11.56
2022-10-17T06:05:21.822Z,11.67
2022-10-17T06:07:48.289Z,11.68
2022-10-17T06:10:14.756Z,11.82
2022-10-17T06:12:40.992Z,11.83
2022-10-17T06:15:07.537Z,11.62
2022-10-17T06:17:34.049Z,11.45
2022-10-17T06:20:00.879Z,11.36
2022-10-17T06:22:27.670Z,11.27
2022-10-17T06:24:54.361Z,11.24
2022-10-17T06:27:20.820Z,11.20
2022-10-17T06:29:48.503Z,11.16
2022-10-17T06:32:15.287Z,11.15
2022-10-17T06:34:41.715Z,11.12
2022-10-17T06:37:08.522Z,11.14
2022-10-17T06:39:34.879Z,11.10
2022-10-17T06:42:01.352Z,11.08
2022-10-17T06:44:28.857Z,11.08
2022-10-17T06:46:55.546Z,10.98
2022-10-17T06:49:21.815Z,11.00
2022-10-17T06:51:48.128Z,11.06
2022-10-17T06:54:14.608Z,11.15
2022-10-17T06:56:40.881Z,11.01
2022-10-17T06:59:07.375Z,11.15
2022-10-17T07:01:34.095Z,11.12
2022-10-17T07:04:00.379Z,11.18
2022-10-17T07:06:26.787Z,11.25
2022-10-17T07:08:53.300Z,11.29
2022-10-17T07:11:19.539Z,11.35
2022-10-17T07:13:45.902Z,11.41
2022-10-17T07:16:12.180Z,11.40
2022-10-17T07:18:38.516Z,11.42
2022-10-17T07:21:05.217Z,11.47
2022-10-17T07:23:31.675Z,11.57
2022-10-17T07:25:58.023Z,11.67
2022-10-17T07:28:24.528Z,11.74
2022-10-17T07:30:53.653Z,11.87
2022-10-17T07:33:20.919Z,12.01
2022-10-17T07:35:47.286Z,12.09
2022-10-17T07:38:13.751Z,12.09
2022-10-17T07:40:40.035Z,12.09
2022-10-17T07:43:06.527Z,12.04
2022-10-17T07:45:32.825Z,12.10
2022-10-17T07:47:59.130Z,12.22
2022-10-17T07:50:25.685Z,12.32
2022-10-17T07:52:51.981Z,12.45
2022-10-17T07:55:18.303Z,12.37
2022-10-17T07:57:44.821Z,12.35
2022-10-17T08:00:11.354Z,12.48
2022-10-17T08:02:40.529Z,12.43
2022-10-17T08:05:06.899Z,12.56
2022-10-17T08:07:33.343Z,12.64
2022-10-17T08:10:00.352Z,12.93
2022-10-17T08:12:27.894Z,13.14
2022-10-17T08:14:54.474Z,13.32
2022-10-17T08:17:20.972Z,13.28
2022-10-17T08:19:47.551Z,13.42
2022-10-17T08:22:16.116Z,13.55
2022-10-17T08:24:42.456Z,13.65
2022-10-17T08:27:08.891Z,13.69
2022-10-17T08:29:35.169Z,13.81
2022-10-17T08:32:02.460Z,13.88
2022-10-17T08:34:30.265Z,13.81
2022-10-17T08:36:57.030Z,13.83
2022-10-17T08:39:23.334Z,13.90
2022-10-17T08:41:49.646Z,14.04
2022-10-17T08:44:16.106Z,14.00
2022-10-17T08:46:42.670Z,14.04
2022-10-17T08:49:12.014Z,13.96
2022-10-17T08:51:38.530Z,14.01
2022-10-17T08:54:04.801Z,13.95
2022-10-17T08:56:49.607Z,13.98
2022-10-17T08:59:16.088Z,14.01
2022-10-17T09:01:42.779Z,14.07
2022-10-17T09:04:10.059Z,14.05
2022-10-17T09:06:36.341Z,13.99
2022-10-17T09:09:02.687Z,14.00
2022-10-17T09:11:29.103Z,14.10
2022-10-17T09:13:55.510Z,14.13
2022-10-17T09:16:22.544Z,14.08
2022-10-17T09:18:48.849Z,14.01
2022-10-17T09:21:15.153Z,14.14
2022-10-17T09:23:42.626Z,14.10
2022-10-17T09:26:09.314Z,14.18
2022-10-17T09:28:36.865Z,14.35
2022-10-17T09:31:09.593Z,14.38
2022-10-17T09:33:53.221Z,14.31
2022-10-17T09:36:21.170Z,14.22
2022-10-17T09:38:47.453Z,14.37
2022-10-17T09:41:39.193Z,14.14
2022-10-17T09:44:00.216Z,13.99
2022-10-17T09:46:26.743Z,14.33
2022-10-17T09:48:53.486Z,14.32
2022-10-17T09:51:25.864Z,14.32
2022-10-17T09:53:52.678Z,14.50
2022-10-17T09:56:19.107Z,14.63
2022-10-17T09:58:45.428Z,14.59
2022-10-17T10:01:12.263Z,14.74
2022-10-17T10:03:39.698Z,14.60
2022-10-17T10:06:06.021Z,14.62
2022-10-17T10:08:32.280Z,14.86
2022-10-17T10:10:58.534Z,15.02
2022-10-17T10:13:24.858Z,15.12
2022-10-17T10:15:51.098Z,15.07
2022-10-17T10:18:17.375Z,15.18
2022-10-17T10:20:43.872Z,15.07
2022-10-17T10:23:10.143Z,15.22
2022-10-17T10:25:36.398Z,15.30
2022-10-17T10:28:02.701Z,15.16
2022-10-17T10:30:29.080Z,15.19
2022-10-17T10:32:55.346Z,15.32
2022-10-17T10:35:21.753Z,15.43
2022-10-17T10:37:48.012Z,15.50
2022-10-17T10:40:14.258Z,15.47
2022-10-17T10:42:40.626Z,15.53
2022-10-17T10:45:09.308Z,15.49
2022-10-17T10:47:39.331Z,15.67
2022-10-17T10:50:05.623Z,15.71
2022-10-17T10:52:32.045Z,15.77
2022-10-17T10:54:58.345Z,15.68
2022-10-17T10:57:26.482Z,15.85
2022-10-17T10:59:53.022Z,15.88
2022-10-17T11:02:19.873Z,15.86
2022-10-17T11:04:46.477Z,15.89
2022-10-17T11:07:13.250Z,16.00
2022-10-17T11:09:39.507Z,16.04
2022-10-17T11:12:05.872Z,16.08
2022-10-17T11:14:32.186Z,15.92
2022-10-17T11:16:58.640Z,16.11
2022-10-17T11:19:25.232Z,16.18
2022-10-17T11:21:51.620Z,16.16
2022-10-17T11:24:17.890Z,16.16
2022-10-17T11:26:44.475Z,16.31
2022-10-17T11:29:10.910Z,16.29
2022-10-17T11:31:37.437Z,16.29
2022-10-17T11:34:04.014Z,16.29
2022-10-17T11:36:30.292Z,16.46
2022-10-17T11:38:56.579Z,16.36
2022-10-17T11:41:22.891Z,16.51
2022-10-17T11:43:49.155Z,16.55
2022-10-17T11:46:15.421Z,16.65
2022-10-17T11:48:42.222Z,16.59
2022-10-17T11:53:55.197Z,16.70
2022-10-17T11:56:21.893Z,16.71
2022-10-17T11:58:50.382Z,16.83
2022-10-17T12:01:17.063Z,16.88
2022-10-17T12:03:44.421Z,16.75
2022-10-17T12:06:10.704Z,16.91
2022-10-17T12:08:37.443Z,16.86
2022-10-17T12:11:03.705Z,17.03
2022-10-17T12:13:30.102Z,17.11
2022-10-17T12:15:56.680Z,17.18
2022-10-17T12:18:22.959Z,17.21
2022-10-17T12:20:51.275Z,17.21
2022-10-17T12:23:17.605Z,17.29
2022-10-17T12:25:43.875Z,17.25
2022-10-17T12:28:10.122Z,17.44
2022-10-17T12:30:36.462Z,17.48
2022-10-17T12:33:07.477Z,17.46
2022-10-17T12:35:34.370Z,17.56
2022-10-17T12:38:00.893Z,17.53
2022-10-17T12:40:27.156Z,17.59
2022-10-17T12:42:53.479Z,17.60
2022-10-17T12:45:20.114Z,17.69
2022-10-17T12:47:46.367Z,17.69
2022-10-17T12:50:13.088Z,17.75
2022-10-17T12:52:39.661Z,17.93
2022-10-17T12:55:13.925Z,17.87
2022-10-17T12:57:40.867Z,17.91
2022-10-17T13:00:07.137Z,17.98
2022-10-17T13:02:34.426Z,17.84
2022-10-17T13:05:00.971Z,18.00
2022-10-17T13:07:27.653Z,18.06
2022-10-17T13:09:54.190Z,18.06
2022-10-17T13:12:20.506Z,18.02
2022-10-17T13:14:46.975Z,18.15
2022-10-17T13:17:13.484Z,18.29
2022-10-17T13:19:39.877Z,18.27
2022-10-17T13:22:07.264Z,18.36
2022-10-17T13:24:33.943Z,18.42
2022-10-17T13:27:00.282Z,18.46
2022-10-17T13:29:26.531Z,18.50
2022-10-17T13:31:53.351Z,18.50
2022-10-17T13:34:19.735Z,18.48
2022-10-17T13:36:48.731Z,18.53
2022-10-17T13:39:17.178Z,18.59
2022-10-17T13:41:46.481Z,18.72
2022-10-17T13:44:12.819Z,18.74
2022-10-17T13:46:39.875Z,18.91
2022-10-17T13:49:06.439Z,18.96
2022-10-17T13:51:32.808Z,18.92
2022-10-17T13:53:59.174Z,18.94
2022-10-17T13:56:29.923Z,19.07
2022-10-17T13:58:56.592Z,18.89
2022-10-17T14:01:22.897Z,18.98
2022-10-17T14:03:57.046Z,19.06
2022-10-17T14:06:28.731Z,19.10
2022-10-17T14:08:55.393Z,19.21
2022-10-17T14:11:23.861Z,19.29
2022-10-17T14:13:50.481Z,19.30
2022-10-17T14:16:17.178Z,19.38
2022-10-17T14:18:43.768Z,19.36
2022-10-17T14:23:59.724Z,19.30
2022-10-17T14:26:26.155Z,19.18
2022-10-17T14:28:52.484Z,19.35
2022-10-17T14:31:19.114Z,19.43
2022-10-17T14:33:49.744Z,19.45
2022-10-17T14:36:17.580Z,19.36
2022-10-17T14:38:44.197Z,19.39
2022-10-17T14:41:37.789Z,19.45
2022-10-17T14:43:57.079Z,19.43
2022-10-17T14:46:23.380Z,19.28
2022-10-17T14:48:49.726Z,19.28
2022-10-17T14:51:16.332Z,19.34
2022-10-17T14:53:42.692Z,19.30
2022-10-17T14:56:09.076Z,19.25
2022-10-17T14:58:35.587Z,19.27
2022-10-17T15:01:01.938Z,19.12
2022-10-17T15:03:28.551Z,19.03
2022-10-17T15:05:55.067Z,18.92
2022-10-17T15:08:21.387Z,18.88
2022-10-17T15:10:47.671Z,18.94
2022-10-17T15:13:27.634Z,18.86
2022-10-17T15:15:54.694Z,18.79
2022-10-17T15:18:21.216Z,18.63
2022-10-17T15:20:50.097Z,18.69
2022-10-17T15:23:23.373Z,18.72
2022-10-17T15:25:49.620Z,18.67
2022-10-17T15:28:16.101Z,18.75
2022-10-17T15:30:42.485Z,18.72
2022-10-17T15:33:09.380Z,18.66
2022-10-17T15:35:35.624Z,18.70
2022-10-17T15:38:01.978Z,18.69
2022-10-17T15:40:28.362Z,18.50
2022-10-17T15:42:54.647Z,18.47
2022-10-17T15:45:21.295Z,18.49
2022-10-17T15:47:47.937Z,18.38
2022-10-17T15:50:14.241Z,18.38
2022-10-17T15:52:41.058Z,18.29
2022-10-17T15:55:07.319Z,18.33
2022-10-17T15:57:33.894Z,18.35
2022-10-17T16:00:00.484Z,18.37
2022-10-17T16:02:26.812Z,18.14
2022-10-17T16:04:53.064Z,18.12
2022-10-17T16:07:20.468Z,18.02
2022-10-17T16:09:46.765Z,18.20
2022-10-17T16:12:13.093Z,18.17
2022-10-17T16:14:39.629Z,18.17
2022-10-17T16:17:05.917Z,18.11
2022-10-17T16:19:32.192Z,18.10
2022-10-17T16:22:00.839Z,18.10
2022-10-17T16:24:30.513Z,17.99
2022-10-17T16:26:56.835Z,17.75
2022-10-17T16:29:23.591Z,17.86
2022-10-17T16:31:50.889Z,17.73
2022-10-17T16:34:17.160Z,17.64
2022-10-17T16:36:43.761Z,17.82
2022-10-17T16:39:10.031Z,17.98
2022-10-17T16:41:36.308Z,17.87
2022-10-17T16:44:02.633Z,17.72
2022-10-17T16:46:29.135Z,17.70
2022-10-17T16:48:55.407Z,17.73
2022-10-17T16:51:22.312Z,17.57
2022-10-17T16:53:50.928Z,17.58
2022-10-17T16:56:17.188Z,17.46
2022-10-17T16:58:43.775Z,17.58
2022-10-17T17:01:10.168Z,17.60
2022-10-17T17:03:36.605Z,17.57
2022-10-17T17:06:03.256Z,17.71
2022-10-17T17:08:29.525Z,17.60
2022-10-17T17:10:55.866Z,17.62
2022-10-17T17:13:22.472Z,17.60
2022-10-17T17:15:49.838Z,17.58
2022-10-17T17:18:16.321Z,17.52
2022-10-17T17:20:43.214Z,17.34
2022-10-17T17:23:13.703Z,17.31
2022-10-17T17:25:43.263Z,17.35
2022-10-17T17:28:11.234Z,17.43
2022-10-17T17:30:37.960Z,17.26
2022-10-17T17:33:04.309Z,17.26
2022-10-17T17:35:31.408Z,17.06
2022-10-17T17:37:58.119Z,17.04
2022-10-17T17:40:25.010Z,17.07
2022-10-17T17:42:53.164Z,16.89
2022-10-17T17:45:23.877Z,17.09
2022-10-17T17:47:50.506Z,17.14
2022-10-17T17:50:17.047Z,17.00
2022-10-17T17:52:44.514Z,17.09
2022-10-17T17:55:11.766Z,17.12
2022-10-17T17:57:38.399Z,16.98
2022-10-17T18:00:05.742Z,16.89
2022-10-17T18:02:32.281Z,17.15
2022-10-17T18:04:59.039Z,17.09
2022-10-17T18:07:25.360Z,17.06
2022-10-17T18:09:51.726Z,16.77
2022-10-17T18:12:18.733Z,16.78
2022-10-17T18:14:45.917Z,16.79
2022-10-17T18:17:12.879Z,16.74
2022-10-17T18:19:39.988Z,16.86
2022-10-17T18:22:07.005Z,16.91
2022-10-17T18:24:33.831Z,17.00
2022-10-17T18:27:00.764Z,16.88
2022-10-17T18:29:31.299Z,16.69
2022-10-17T18:31:58.557Z,16.39
2022-10-17T18:34:25.430Z,16.57
2022-10-17T18:36:52.343Z,16.68
2022-10-17T18:39:19.001Z,16.63
2022-10-17T18:41:45.837Z,16.48
2022-10-17T18:44:15.329Z,16.46
2022-10-17T18:46:41.820Z,16.59
2022-10-17T18:49:11.373Z,16.64
2022-10-17T18:51:38.232Z,16.78
2022-10-17T18:54:07.026Z,16.55
2022-10-17T18:56:33.458Z,16.46
2022-10-17T18:59:00.839Z,16.52
2022-10-17T19:01:27.301Z,16.54
2022-10-17T19:03:54.583Z,16.49
2022-10-17T19:06:20.948Z,16.41
2022-10-17T19:08:47.512Z,16.48
2022-10-17T19:11:17.516Z,16.49
2022-10-17T19:16:16.364Z,16.52
2022-10-17T19:18:46.472Z,16.53
2022-10-17T19:21:12.840Z,16.42
2022-10-17T19:23:39.249Z,16.38
2022-10-17T19:26:05.675Z,16.29
2022-10-17T19:28:32.117Z,16.27
2022-10-17T19:30:58.432Z,16.30
2022-10-17T19:33:25.626Z,16.28
2022-10-17T19:35:56.004Z,16.17
2022-10-17T19:38:27.660Z,16.12
2022-10-17T19:40:54.011Z,16.22
2022-10-17T19:43:20.289Z,16.28
2022-10-17T19:45:46.768Z,16.36
2022-10-17T19:48:13.100Z,16.30
2022-10-17T19:50:41.339Z,16.28
2022-10-17T19:53:07.831Z,16.44
2022-10-17T19:55:34.097Z,16.19
2022-10-17T19:58:00.842Z,16.25
2022-10-17T20:00:27.895Z,16.20
2022-10-17T20:02:54.449Z,16.06
2022-10-17T20:05:25.908Z,16.05
2022-10-17T20:07:53.788Z,16.04
2022-10-17T20:10:20.571Z,16.05
2022-10-17T20:12:46.914Z,16.02
2022-10-17T20:15:13.391Z,15.86
2022-10-17T20:17:39.704Z,15.92
2022-10-17T20:20:08.606Z,15.95
2022-10-17T20:22:35.807Z,16.12
2022-10-17T20:25:02.278Z,16.19
2022-10-17T20:27:29.735Z,16.06
2022-10-17T20:29:56.279Z,16.19
2022-10-17T20:32:22.575Z,16.12
2022-10-17T20:34:48.858Z,16.04
2022-10-17T20:37:15.451Z,16.05
2022-10-17T20:39:42.741Z,15.92
2022-10-17T20:42:09.040Z,15.91
2022-10-17T20:44:35.393Z,15.85
2022-10-17T20:47:02.812Z,15.86
2022-10-17T20:49:29.243Z,15.77
2022-10-17T20:51:56.819Z,15.82
2022-10-17T20:54:23.102Z,15.85
2022-10-17T20:56:49.375Z,15.81
2022-10-17T20:59:15.948Z,15.84
2022-10-17T21:01:42.332Z,15.80
2022-10-17T21:06:55.189Z,15.78
2022-10-17T21:09:21.720Z,15.78
2022-10-17T21:11:49.178Z,15.80
2022-10-17T21:14:15.630Z,15.67
2022-10-17T21:16:41.877Z,15.54
2022-10-17T21:19:08.263Z,15.44
2022-10-17T21:21:37.168Z,15.42
2022-10-17T21:24:03.498Z,15.44
2022-10-17T21:26:32.217Z,15.53
2022-10-17T21:28:58.899Z,15.57
2022-10-17T21:31:25.271Z,15.58
2022-10-17T21:33:51.589Z,15.63
2022-10-17T21:36:18.017Z,15.69
2022-10-17T21:38:45.305Z,15.65
2022-10-17T21:41:11.643Z,15.58
2022-10-17T21:43:38.099Z,15.54
2022-10-17T21:46:04.398Z,15.52
2022-10-17T21:48:30.693Z,15.48
2022-10-17T21:50:58.102Z,15.55
2022-10-17T21:53:25.343Z,15.31
2022-10-17T21:55:51.742Z,15.16
2022-10-17T21:58:18.322Z,15.30
2022-10-17T22:00:44.623Z,15.36
2022-10-17T22:03:10.915Z,15.25
2022-10-17T22:05:37.802Z,15.28
2022-10-17T22:08:06.912Z,15.27
2022-10-17T22:10:33.219Z,15.30
2022-10-17T22:12:59.601Z,15.34
2022-10-17T22:15:27.075Z,15.31
2022-10-17T22:17:53.379Z,15.37
2022-10-17T22:20:19.917Z,15.21
2022-10-17T22:22:46.255Z,15.19
2022-10-17T22:25:12.555Z,15.18
2022-10-17T22:27:39.174Z,15.18
2022-10-17T22:30:05.457Z,15.18
2022-10-17T22:32:31.771Z,15.15
2022-10-17T22:34:58.724Z,15.23
2022-10-17T22:37:26.146Z,15.07
2022-10-17T22:39:52.429Z,14.90
2022-10-17T22:44:48.691Z,14.72
2022-10-17T22:47:15.067Z,14.55
2022-10-17T22:49:44.041Z,14.66
2022-10-17T22:52:10.359Z,14.71
2022-10-17T22:54:39.816Z,14.75
2022-10-17T22:57:06.223Z,14.75
2022-10-17T22:59:35.461Z,14.66
2022-10-17T23:02:01.857Z,14.44
2022-10-17T23:04:28.654Z,14.41
2022-10-17T23:06:55.491Z,14.43
2022-10-17T23:09:21.802Z,14.48
2022-10-17T23:11:50.932Z,14.52
2022-10-17T23:14:17.389Z,14.42
2022-10-17T23:16:43.666Z,14.24
2022-10-17T23:19:10.087Z,14.31
2022-10-17T23:21:36.611Z,14.17
2022-10-17T23:24:02.921Z,13.92
2022-10-17T23:26:29.542Z,13.93
2022-10-17T23:28:55.904Z,13.92
2022-10-17T23:31:22.492Z,13.72
2022-10-17T23:33:50.188Z,13.86
2022-10-17T23:36:16.470Z,13.87
2022-10-17T23:38:42.795Z,13.94
2022-10-17T23:41:09.381Z,13.94
2022-10-17T23:43:35.662Z,13.97
2022-10-17T23:46:02.093Z,14.01
2022-10-17T23:48:28.597Z,14.11
2022-10-17T23:50:54.932Z,14.10
2022-10-17T23:53:21.354Z,14.07
2022-10-17T23:55:47.755Z,14.03
2022-10-17T23:58:16.828Z,13.84
